Portada
METAR-TAF:

METAR-TAF

Aeropuertos :

Aeropuerto Capitán Nicolás Rojas

Potosí, Bolivia

latitud: 19-33S, longitud: 065-44W, altitud: 3935 m

Observación

El informe se hizo hace 1 hora y 0 minutos, a las 16:00 UTC
Viento 8 kt del oeste-suroeste
Temperatura 10°C
Humedad 46%
Presión 1039 hPa
Visibilidad 10 km o más

METAR: SLPO 151600Z 25008KT 9999 NSC 10/M01 Q1039

Hora: 13:00 (17:00 UTC)


TAF: falta

Observaciones y pronósticos meteorológicos de más de 4000 aeropuertos (mensajes METAR y TAF).

Los puntos amarillos y rojos representan las estaciones disponibles.

Ponga el ratón en el punto deseado para ver el nombre de la estación.

Haga clic para ver las observaciones y los pronósticos meteorológicos.

Para cambiar el mapa : haga clic en los botones verdes con una cruz de color negro para hacer un zoom, en el botón verde con un guión para alejar o en las flechas verdes para mapas adyacentes.


METAR-TAF: